Cape Lambert — V7TC9 — position and weather

sailwx.info

Track history (hours):
 
Tides and Currents Weather Stations Pressure Air Temp Water Temp Dewpoint Dewpoint Depression Visibility Wind Speed Wind Dir Waves Ship Positions

Cape Lambert

Last reported at 2017-Jan-09 13:33 UTC. Time now 2017-Jan-18 14:08 UTC.
Position S 20°13' E 118°33'.
Warning: this ship's position is 9 days out of date.

Length 290 m; draft 8.2 m.

Type: Cargo ship. MMSI: 538003781.

Date/timePositionNaut miles runAvg speedWind from/ knotsBaromVisibWave heightAir tempDewpointWater temp
2017-Jan-09 13:33S 20°13' E 118°33'7 6.6
2017-Jan-09 12:33S 20°06' E 118°34'1 1.0
2017-Jan-09 11:25S 20°06' E 118°35'0 0.0
2017-Jan-09 07:31S 20°06' E 118°35'0 0.0
2017-Jan-09 06:25S 20°06' E 118°35'14 3.6
2017-Jan-09 02:24S 19°53' E 118°27'1213.8
2017-Jan-09 01:32S 19°42' E 118°24'1714.0
2017-Jan-09 00:18S 19°25' E 118°20'7414.4
2017-Jan-08 19:09S 18°13' E 118°01'2314.6
2017-Jan-08 17:33S 17°50' E 117°56'1614.6
2017-Jan-08 16:29S 17°35' E 117°52'4514.4
2017-Jan-08 13:21S 16°51' E 117°41'5314.0
2017-Jan-08 09:33S 15°59' E 117°28'  
Track history (hours):
 
Tides and Currents Weather Stations Pressure Air Temp Water Temp Dewpoint Dewpoint Depression Visibility Wind Speed Wind Dir Waves Ship Positions

Cape Lambert

Last reported at 2017-Jan-09 13:33 UTC. Time now 2017-Jan-18 14:08 UTC.
Position S 20°13' E 118°33'.
Warning: this ship's position is 9 days out of date.

Length 290 m; draft 8.2 m.

Type: Cargo ship. MMSI: 538003781.

Date/timePositionNaut miles runAvg speedWind from/ knotsBaromVisibWave heightAir tempDewpointWater temp
2017-Jan-09 13:33S 20°13' E 118°33'7 6.6
2017-Jan-09 12:33S 20°06' E 118°34'1 1.0
2017-Jan-09 11:25S 20°06' E 118°35'0 0.0
2017-Jan-09 07:31S 20°06' E 118°35'0 0.0
2017-Jan-09 06:25S 20°06' E 118°35'14 3.6
2017-Jan-09 02:24S 19°53' E 118°27'1213.8
2017-Jan-09 01:32S 19°42' E 118°24'1714.0
2017-Jan-09 00:18S 19°25' E 118°20'7414.4
2017-Jan-08 19:09S 18°13' E 118°01'2314.6
2017-Jan-08 17:33S 17°50' E 117°56'1614.6
2017-Jan-08 16:29S 17°35' E 117°52'4514.4
2017-Jan-08 13:21S 16°51' E 117°41'5314.0
2017-Jan-08 09:33S 15°59' E 117°28'  

Dump ship's entire track history